sensor_id;sensor_type;location;lat;lon;timestamp;temperature;humidity
40808;DHT22;26523;52.504;13.498;2022-10-15T00:00:39;12.50;99.90
40808;DHT22;26523;52.504;13.498;2022-10-15T00:03:05;12.50;99.90
40808;DHT22;26523;52.504;13.498;2022-10-15T00:05:30;12.60;99.90
40808;DHT22;26523;52.504;13.498;2022-10-15T00:07:56;12.60;99.90
40808;DHT22;26523;52.504;13.498;2022-10-15T00:10:22;12.60;99.90
40808;DHT22;26523;52.504;13.498;2022-10-15T00:12:48;12.50;99.90
40808;DHT22;26523;52.504;13.498;2022-10-15T00:15:14;12.50;99.90
40808;DHT22;26523;52.504;13.498;2022-10-15T00:17:40;12.50;99.90
40808;DHT22;26523;52.504;13.498;2022-10-15T00:20:08;12.40;99.90
40808;DHT22;26523;52.504;13.498;2022-10-15T00:22:34;12.40;99.90
40808;DHT22;26523;52.504;13.498;2022-10-15T00:25:00;12.40;99.90
40808;DHT22;26523;52.504;13.498;2022-10-15T00:27:25;12.40;99.90
40808;DHT22;26523;52.504;13.498;2022-10-15T00:29:51;12.30;99.90
40808;DHT22;26523;52.504;13.498;2022-10-15T00:32:17;12.30;99.90
40808;DHT22;26523;52.504;13.498;2022-10-15T00:34:43;12.30;99.90
40808;DHT22;26523;52.504;13.498;2022-10-15T00:37:08;12.30;99.90
40808;DHT22;26523;52.504;13.498;2022-10-15T00:39:35;12.20;99.90
40808;DHT22;26523;52.504;13.498;2022-10-15T00:42:01;12.30;99.90
40808;DHT22;26523;52.504;13.498;2022-10-15T00:47:03;12.30;99.90
40808;DHT22;26523;52.504;13.498;2022-10-15T00:49:34;12.30;99.90
40808;DHT22;26523;52.504;13.498;2022-10-15T00:52:08;12.20;99.90
40808;DHT22;26523;52.504;13.498;2022-10-15T00:54:48;12.30;99.90
40808;DHT22;26523;52.504;13.498;2022-10-15T00:57:14;12.30;99.90
40808;DHT22;26523;52.504;13.498;2022-10-15T00:59:48;12.20;99.90
40808;DHT22;26523;52.504;13.498;2022-10-15T01:02:15;12.30;99.90
40808;DHT22;26523;52.504;13.498;2022-10-15T01:04:41;12.20;99.90
40808;DHT22;26523;52.504;13.498;2022-10-15T01:07:07;12.20;99.90
40808;DHT22;26523;52.504;13.498;2022-10-15T01:09:33;12.30;99.90
40808;DHT22;26523;52.504;13.498;2022-10-15T01:11:59;12.20;99.90
40808;DHT22;26523;52.504;13.498;2022-10-15T01:14:43;12.30;99.90
40808;DHT22;26523;52.504;13.498;2022-10-15T01:22:53;12.40;99.90
40808;DHT22;26523;52.504;13.498;2022-10-15T01:25:37;12.40;99.90
40808;DHT22;26523;52.504;13.498;2022-10-15T01:28:12;12.40;99.90
40808;DHT22;26523;52.504;13.498;2022-10-15T01:30:47;12.40;99.90
40808;DHT22;26523;52.504;13.498;2022-10-15T01:33:34;12.40;99.90
40808;DHT22;26523;52.504;13.498;2022-10-15T01:36:16;12.40;99.90
40808;DHT22;26523;52.504;13.498;2022-10-15T01:39:08;12.40;99.90
40808;DHT22;26523;52.504;13.498;2022-10-15T01:41:42;12.40;99.90
40808;DHT22;26523;52.504;13.498;2022-10-15T01:44:19;12.50;99.90
40808;DHT22;26523;52.504;13.498;2022-10-15T01:46:54;12.40;99.90
40808;DHT22;26523;52.504;13.498;2022-10-15T01:49:26;12.40;99.90
40808;DHT22;26523;52.504;13.498;2022-10-15T01:51:55;12.50;99.90
40808;DHT22;26523;52.504;13.498;2022-10-15T01:54:24;12.40;99.90
40808;DHT22;26523;52.504;13.498;2022-10-15T01:56:51;12.50;99.90
40808;DHT22;26523;52.504;13.498;2022-10-15T01:59:29;12.50;99.90
40808;DHT22;26523;52.504;13.498;2022-10-15T02:01:55;12.50;99.90
40808;DHT22;26523;52.504;13.498;2022-10-15T02:04:24;12.60;99.90
40808;DHT22;26523;52.504;13.498;2022-10-15T02:07:07;12.60;99.90
40808;DHT22;26523;52.504;13.498;2022-10-15T02:09:57;12.60;99.90
40808;DHT22;26523;52.504;13.498;2022-10-15T02:13:03;12.60;99.90
40808;DHT22;26523;52.504;13.498;2022-10-15T02:21:52;12.70;99.90
40808;DHT22;26523;52.504;13.498;2022-10-15T02:24:35;12.70;99.90
40808;DHT22;26523;52.504;13.498;2022-10-15T02:27:02;12.70;99.90
40808;DHT22;26523;52.504;13.498;2022-10-15T02:29:32;12.60;99.90
40808;DHT22;26523;52.504;13.498;2022-10-15T02:31:59;12.60;99.90
40808;DHT22;26523;52.504;13.498;2022-10-15T02:34:28;12.60;99.90
40808;DHT22;26523;52.504;13.498;2022-10-15T02:36:56;12.50;99.90
40808;DHT22;26523;52.504;13.498;2022-10-15T02:39:23;12.60;99.90
40808;DHT22;26523;52.504;13.498;2022-10-15T02:41:49;12.60;99.90
40808;DHT22;26523;52.504;13.498;2022-10-15T02:44:15;12.60;99.90
40808;DHT22;26523;52.504;13.498;2022-10-15T02:46:41;12.60;99.90
40808;DHT22;26523;52.504;13.498;2022-10-15T02:49:07;12.60;99.90
40808;DHT22;26523;52.504;13.498;2022-10-15T02:51:33;12.60;99.90
40808;DHT22;26523;52.504;13.498;2022-10-15T02:54:00;12.60;99.90
40808;DHT22;26523;52.504;13.498;2022-10-15T02:56:27;12.70;99.90
40808;DHT22;26523;52.504;13.498;2022-10-15T02:58:52;12.70;99.90
40808;DHT22;26523;52.504;13.498;2022-10-15T03:01:18;12.70;99.90
40808;DHT22;26523;52.504;13.498;2022-10-15T03:03:43;12.70;99.90
40808;DHT22;26523;52.504;13.498;2022-10-15T03:06:09;12.70;99.90
40808;DHT22;26523;52.504;13.498;2022-10-15T03:08:35;12.60;99.90
40808;DHT22;26523;52.504;13.498;2022-10-15T03:11:01;12.60;99.90
40808;DHT22;26523;52.504;13.498;2022-10-15T03:13:27;12.60;99.90
40808;DHT22;26523;52.504;13.498;2022-10-15T03:15:53;12.70;99.90
40808;DHT22;26523;52.504;13.498;2022-10-15T03:18:18;12.70;99.90
40808;DHT22;26523;52.504;13.498;2022-10-15T03:20:51;12.60;99.90
40808;DHT22;26523;52.504;13.498;2022-10-15T03:23:17;12.60;99.90
40808;DHT22;26523;52.504;13.498;2022-10-15T03:25:42;12.60;99.90
40808;DHT22;26523;52.504;13.498;2022-10-15T03:28:08;12.60;99.90
40808;DHT22;26523;52.504;13.498;2022-10-15T03:30:33;12.70;99.90
40808;DHT22;26523;52.504;13.498;2022-10-15T03:32:59;12.60;99.90
40808;DHT22;26523;52.504;13.498;2022-10-15T03:35:24;12.60;99.90
40808;DHT22;26523;52.504;13.498;2022-10-15T03:37:50;12.60;99.90
40808;DHT22;26523;52.504;13.498;2022-10-15T03:40:16;12.50;99.90
40808;DHT22;26523;52.504;13.498;2022-10-15T03:42:43;12.50;99.90
40808;DHT22;26523;52.504;13.498;2022-10-15T03:45:09;12.40;99.90
40808;DHT22;26523;52.504;13.498;2022-10-15T03:47:35;12.30;99.90
40808;DHT22;26523;52.504;13.498;2022-10-15T03:50:01;12.30;99.90
40808;DHT22;26523;52.504;13.498;2022-10-15T03:52:26;12.20;99.90
40808;DHT22;26523;52.504;13.498;2022-10-15T03:54:52;12.30;99.90
40808;DHT22;26523;52.504;13.498;2022-10-15T03:57:17;12.30;99.90
40808;DHT22;26523;52.504;13.498;2022-10-15T03:59:43;12.20;99.90
40808;DHT22;26523;52.504;13.498;2022-10-15T04:02:08;12.20;99.90
40808;DHT22;26523;52.504;13.498;2022-10-15T04:04:34;12.20;99.90
40808;DHT22;26523;52.504;13.498;2022-10-15T04:06:59;12.20;99.90
40808;DHT22;26523;52.504;13.498;2022-10-15T04:09:25;12.30;99.90
40808;DHT22;26523;52.504;13.498;2022-10-15T04:11:50;12.30;99.90
40808;DHT22;26523;52.504;13.498;2022-10-15T04:14:16;12.40;99.90
40808;DHT22;26523;52.504;13.498;2022-10-15T04:16:43;12.40;99.90
40808;DHT22;26523;52.504;13.498;2022-10-15T04:19:09;12.40;99.90
40808;DHT22;26523;52.504;13.498;2022-10-15T04:21:34;12.50;99.90
40808;DHT22;26523;52.504;13.498;2022-10-15T04:24:00;12.50;99.90
40808;DHT22;26523;52.504;13.498;2022-10-15T04:26:26;12.50;99.90
40808;DHT22;26523;52.504;13.498;2022-10-15T04:28:51;12.50;99.90
40808;DHT22;26523;52.504;13.498;2022-10-15T04:31:17;12.50;99.90
40808;DHT22;26523;52.504;13.498;2022-10-15T04:33:42;12.50;99.90
40808;DHT22;26523;52.504;13.498;2022-10-15T04:36:11;12.60;99.90
40808;DHT22;26523;52.504;13.498;2022-10-15T04:38:37;12.50;99.90
40808;DHT22;26523;52.504;13.498;2022-10-15T04:41:08;12.50;99.90
40808;DHT22;26523;52.504;13.498;2022-10-15T04:43:34;12.50;99.90
40808;DHT22;26523;52.504;13.498;2022-10-15T04:46:02;12.60;99.90
40808;DHT22;26523;52.504;13.498;2022-10-15T04:48:29;12.60;99.90
40808;DHT22;26523;52.504;13.498;2022-10-15T04:51:05;12.70;99.90
40808;DHT22;26523;52.504;13.498;2022-10-15T04:53:31;12.70;99.90
40808;DHT22;26523;52.504;13.498;2022-10-15T04:56:01;12.70;99.90
40808;DHT22;26523;52.504;13.498;2022-10-15T04:58:29;12.70;99.90
40808;DHT22;26523;52.504;13.498;2022-10-15T05:00:58;12.60;99.90
40808;DHT22;26523;52.504;13.498;2022-10-15T05:03:24;12.70;99.90
40808;DHT22;26523;52.504;13.498;2022-10-15T05:05:50;12.70;99.90
40808;DHT22;26523;52.504;13.498;2022-10-15T05:08:15;12.70;99.90
40808;DHT22;26523;52.504;13.498;2022-10-15T05:10:41;12.70;99.90
40808;DHT22;26523;52.504;13.498;2022-10-15T05:13:06;12.70;99.90
40808;DHT22;26523;52.504;13.498;2022-10-15T05:15:32;12.70;99.90
40808;DHT22;26523;52.504;13.498;2022-10-15T05:17:57;12.80;99.90
40808;DHT22;26523;52.504;13.498;2022-10-15T05:20:23;12.80;99.90
40808;DHT22;26523;52.504;13.498;2022-10-15T05:22:48;12.80;99.90
40808;DHT22;26523;52.504;13.498;2022-10-15T05:25:14;12.80;99.90
40808;DHT22;26523;52.504;13.498;2022-10-15T05:27:40;12.80;99.90
40808;DHT22;26523;52.504;13.498;2022-10-15T05:30:06;12.80;99.90
40808;DHT22;26523;52.504;13.498;2022-10-15T05:32:31;12.90;99.90
40808;DHT22;26523;52.504;13.498;2022-10-15T05:34:57;12.80;99.90
40808;DHT22;26523;52.504;13.498;2022-10-15T05:37:22;12.70;99.90
40808;DHT22;26523;52.504;13.498;2022-10-15T05:39:48;12.70;99.90
40808;DHT22;26523;52.504;13.498;2022-10-15T05:42:13;12.70;99.90
40808;DHT22;26523;52.504;13.498;2022-10-15T05:44:39;12.80;99.90
40808;DHT22;26523;52.504;13.498;2022-10-15T05:47:05;12.70;99.90
40808;DHT22;26523;52.504;13.498;2022-10-15T05:49:31;12.80;99.90
40808;DHT22;26523;52.504;13.498;2022-10-15T05:51:56;12.90;99.90
40808;DHT22;26523;52.504;13.498;2022-10-15T05:54:22;12.90;99.90
40808;DHT22;26523;52.504;13.498;2022-10-15T05:56:48;12.80;99.90
40808;DHT22;26523;52.504;13.498;2022-10-15T05:59:14;12.80;99.90
40808;DHT22;26523;52.504;13.498;2022-10-15T06:01:39;12.80;99.90
40808;DHT22;26523;52.504;13.498;2022-10-15T06:04:05;12.90;99.90
40808;DHT22;26523;52.504;13.498;2022-10-15T06:06:30;12.90;99.90
40808;DHT22;26523;52.504;13.498;2022-10-15T06:08:57;12.90;99.90
40808;DHT22;26523;52.504;13.498;2022-10-15T06:11:23;13.00;99.90
40808;DHT22;26523;52.504;13.498;2022-10-15T06:13:48;12.90;99.90
40808;DHT22;26523;52.504;13.498;2022-10-15T06:16:15;13.00;99.90
40808;DHT22;26523;52.504;13.498;2022-10-15T06:18:41;13.00;99.90
40808;DHT22;26523;52.504;13.498;2022-10-15T06:21:08;13.10;99.90
40808;DHT22;26523;52.504;13.498;2022-10-15T06:23:34;13.10;99.90
40808;DHT22;26523;52.504;13.498;2022-10-15T06:26:02;13.10;99.90
40808;DHT22;26523;52.504;13.498;2022-10-15T06:28:28;13.20;99.90
40808;DHT22;26523;52.504;13.498;2022-10-15T06:30:56;13.20;99.90
40808;DHT22;26523;52.504;13.498;2022-10-15T06:33:21;13.20;99.90
40808;DHT22;26523;52.504;13.498;2022-10-15T06:35:47;13.30;99.90
40808;DHT22;26523;52.504;13.498;2022-10-15T06:38:12;13.40;99.90
40808;DHT22;26523;52.504;13.498;2022-10-15T06:40:38;13.50;99.90
40808;DHT22;26523;52.504;13.498;2022-10-15T06:43:08;13.60;99.90
40808;DHT22;26523;52.504;13.498;2022-10-15T06:45:39;13.80;99.90
40808;DHT22;26523;52.504;13.498;2022-10-15T06:48:06;13.90;99.90
40808;DHT22;26523;52.504;13.498;2022-10-15T06:50:33;14.10;99.90
40808;DHT22;26523;52.504;13.498;2022-10-15T06:52:59;14.10;99.90
40808;DHT22;26523;52.504;13.498;2022-10-15T06:55:25;14.20;99.90
40808;DHT22;26523;52.504;13.498;2022-10-15T06:57:53;14.20;99.90
40808;DHT22;26523;52.504;13.498;2022-10-15T07:00:19;14.30;99.90
40808;DHT22;26523;52.504;13.498;2022-10-15T07:02:44;14.30;99.90
40808;DHT22;26523;52.504;13.498;2022-10-15T07:05:10;14.40;99.90
40808;DHT22;26523;52.504;13.498;2022-10-15T07:07:36;14.50;99.90
40808;DHT22;26523;52.504;13.498;2022-10-15T07:10:01;14.50;99.90
40808;DHT22;26523;52.504;13.498;2022-10-15T07:12:27;14.40;99.90
40808;DHT22;26523;52.504;13.498;2022-10-15T07:14:53;14.30;99.90
40808;DHT22;26523;52.504;13.498;2022-10-15T07:17:18;14.20;99.90
40808;DHT22;26523;52.504;13.498;2022-10-15T07:19:44;14.10;99.90
40808;DHT22;26523;52.504;13.498;2022-10-15T07:22:10;14.10;99.90
40808;DHT22;26523;52.504;13.498;2022-10-15T07:24:35;14.20;99.90
40808;DHT22;26523;52.504;13.498;2022-10-15T07:27:02;14.30;99.90
40808;DHT22;26523;52.504;13.498;2022-10-15T07:29:28;14.40;99.90
40808;DHT22;26523;52.504;13.498;2022-10-15T07:31:53;14.40;99.90
40808;DHT22;26523;52.504;13.498;2022-10-15T07:34:19;14.50;99.90
40808;DHT22;26523;52.504;13.498;2022-10-15T07:36:45;14.50;99.90
40808;DHT22;26523;52.504;13.498;2022-10-15T07:39:11;14.50;99.90
40808;DHT22;26523;52.504;13.498;2022-10-15T07:41:37;14.60;99.90
40808;DHT22;26523;52.504;13.498;2022-10-15T07:44:02;14.60;99.90
40808;DHT22;26523;52.504;13.498;2022-10-15T07:46:28;14.90;99.90
40808;DHT22;26523;52.504;13.498;2022-10-15T07:48:54;15.10;99.90
40808;DHT22;26523;52.504;13.498;2022-10-15T07:51:19;15.40;99.90
40808;DHT22;26523;52.504;13.498;2022-10-15T07:53:45;15.70;99.90
40808;DHT22;26523;52.504;13.498;2022-10-15T07:56:13;15.80;99.90
40808;DHT22;26523;52.504;13.498;2022-10-15T07:58:39;15.90;99.90
40808;DHT22;26523;52.504;13.498;2022-10-15T08:01:07;15.80;99.90
40808;DHT22;26523;52.504;13.498;2022-10-15T08:03:33;15.80;99.90
40808;DHT22;26523;52.504;13.498;2022-10-15T08:06:03;15.70;99.90
40808;DHT22;26523;52.504;13.498;2022-10-15T08:08:30;15.60;99.90
40808;DHT22;26523;52.504;13.498;2022-10-15T08:10:56;15.50;99.90
40808;DHT22;26523;52.504;13.498;2022-10-15T08:13:22;15.50;99.90
40808;DHT22;26523;52.504;13.498;2022-10-15T08:15:48;15.60;99.90
40808;DHT22;26523;52.504;13.498;2022-10-15T08:18:14;15.60;99.90
40808;DHT22;26523;52.504;13.498;2022-10-15T08:20:40;15.70;99.90
40808;DHT22;26523;52.504;13.498;2022-10-15T08:23:13;15.80;99.90
40808;DHT22;26523;52.504;13.498;2022-10-15T08:25:39;15.80;99.90
40808;DHT22;26523;52.504;13.498;2022-10-15T08:28:06;15.90;99.90
40808;DHT22;26523;52.504;13.498;2022-10-15T08:30:34;16.10;99.90
40808;DHT22;26523;52.504;13.498;2022-10-15T08:33:00;16.30;99.90
40808;DHT22;26523;52.504;13.498;2022-10-15T08:35:25;16.70;99.90
40808;DHT22;26523;52.504;13.498;2022-10-15T08:37:54;17.20;99.90
40808;DHT22;26523;52.504;13.498;2022-10-15T08:40:21;17.70;99.90
40808;DHT22;26523;52.504;13.498;2022-10-15T08:42:47;17.80;99.90
40808;DHT22;26523;52.504;13.498;2022-10-15T08:45:17;18.00;99.90
40808;DHT22;26523;52.504;13.498;2022-10-15T08:47:54;18.10;99.90
40808;DHT22;26523;52.504;13.498;2022-10-15T08:50:32;18.20;99.90
40808;DHT22;26523;52.504;13.498;2022-10-15T08:53:00;18.00;99.90
40808;DHT22;26523;52.504;13.498;2022-10-15T08:55:32;18.00;99.90
40808;DHT22;26523;52.504;13.498;2022-10-15T08:58:11;18.00;99.90
40808;DHT22;26523;52.504;13.498;2022-10-15T09:04:00;17.90;99.90
40808;DHT22;26523;52.504;13.498;2022-10-15T09:06:33;17.80;99.90
40808;DHT22;26523;52.504;13.498;2022-10-15T09:11:44;17.40;99.90
40808;DHT22;26523;52.504;13.498;2022-10-15T09:14:18;17.30;99.90
40808;DHT22;26523;52.504;13.498;2022-10-15T09:16:48;17.20;99.90
40808;DHT22;26523;52.504;13.498;2022-10-15T09:19:21;17.10;99.90
40808;DHT22;26523;52.504;13.498;2022-10-15T09:21:49;17.00;99.90
40808;DHT22;26523;52.504;13.498;2022-10-15T09:24:23;16.90;99.90
40808;DHT22;26523;52.504;13.498;2022-10-15T09:32:53;16.90;99.90
40808;DHT22;26523;52.504;13.498;2022-10-15T09:38:23;17.10;99.90
40808;DHT22;26523;52.504;13.498;2022-10-15T09:40:53;17.20;99.90
40808;DHT22;26523;52.504;13.498;2022-10-15T09:43:29;17.40;99.90
40808;DHT22;26523;52.504;13.498;2022-10-15T09:45:59;17.50;99.90
40808;DHT22;26523;52.504;13.498;2022-10-15T09:48:27;17.60;99.90
40808;DHT22;26523;52.504;13.498;2022-10-15T09:53:51;18.00;99.90
40808;DHT22;26523;52.504;13.498;2022-10-15T09:56:23;18.30;99.90
40808;DHT22;26523;52.504;13.498;2022-10-15T09:58:53;18.60;99.90
40808;DHT22;26523;52.504;13.498;2022-10-15T10:01:21;18.60;99.90
40808;DHT22;26523;52.504;13.498;2022-10-15T10:04:09;18.50;99.90
40808;DHT22;26523;52.504;13.498;2022-10-15T10:06:50;18.40;99.90
40808;DHT22;26523;52.504;13.498;2022-10-15T10:09:20;18.40;99.90
40808;DHT22;26523;52.504;13.498;2022-10-15T10:11:50;18.50;99.90
40808;DHT22;26523;52.504;13.498;2022-10-15T10:14:34;18.60;99.90
40808;DHT22;26523;52.504;13.498;2022-10-15T10:17:29;18.50;99.90
40808;DHT22;26523;52.504;13.498;2022-10-15T10:20:17;18.40;99.90
40808;DHT22;26523;52.504;13.498;2022-10-15T10:22:54;18.40;99.90
40808;DHT22;26523;52.504;13.498;2022-10-15T10:27:57;18.30;99.90
40808;DHT22;26523;52.504;13.498;2022-10-15T10:30:23;18.40;99.90
40808;DHT22;26523;52.504;13.498;2022-10-15T10:32:55;18.50;99.90
40808;DHT22;26523;52.504;13.498;2022-10-15T10:35:24;18.60;99.90
40808;DHT22;26523;52.504;13.498;2022-10-15T10:37:51;18.70;99.90
40808;DHT22;26523;52.504;13.498;2022-10-15T10:40:27;18.80;99.90
40808;DHT22;26523;52.504;13.498;2022-10-15T10:48:20;19.00;99.90
40808;DHT22;26523;52.504;13.498;2022-10-15T10:50:46;18.90;99.90
40808;DHT22;26523;52.504;13.498;2022-10-15T10:53:24;18.90;99.90
40808;DHT22;26523;52.504;13.498;2022-10-15T10:55:51;19.10;99.90
40808;DHT22;26523;52.504;13.498;2022-10-15T10:58:20;19.20;99.90
40808;DHT22;26523;52.504;13.498;2022-10-15T11:00:49;19.20;99.90
40808;DHT22;26523;52.504;13.498;2022-10-15T11:03:37;19.10;99.90
40808;DHT22;26523;52.504;13.498;2022-10-15T11:08:53;19.20;99.90
40808;DHT22;26523;52.504;13.498;2022-10-15T11:11:28;19.00;99.90
40808;DHT22;26523;52.504;13.498;2022-10-15T11:14:06;19.00;99.90
40808;DHT22;26523;52.504;13.498;2022-10-15T11:19:53;19.10;99.90
40808;DHT22;26523;52.504;13.498;2022-10-15T11:22:35;19.20;99.90
40808;DHT22;26523;52.504;13.498;2022-10-15T11:25:47;19.40;99.90
40808;DHT22;26523;52.504;13.498;2022-10-15T11:31:07;19.40;99.90
40808;DHT22;26523;52.504;13.498;2022-10-15T11:36:59;19.60;99.90
40808;DHT22;26523;52.504;13.498;2022-10-15T11:42:37;19.70;99.90
40808;DHT22;26523;52.504;13.498;2022-10-15T11:50:52;19.30;99.90
40808;DHT22;26523;52.504;13.498;2022-10-15T11:53:24;19.40;99.90
40808;DHT22;26523;52.504;13.498;2022-10-15T11:56:15;19.40;99.90
40808;DHT22;26523;52.504;13.498;2022-10-15T11:58:48;19.20;99.90
40808;DHT22;26523;52.504;13.498;2022-10-15T12:01:25;19.00;99.90
40808;DHT22;26523;52.504;13.498;2022-10-15T12:04:00;18.90;99.90
40808;DHT22;26523;52.504;13.498;2022-10-15T12:06:34;18.80;99.90
40808;DHT22;26523;52.504;13.498;2022-10-15T12:09:01;18.90;99.90
40808;DHT22;26523;52.504;13.498;2022-10-15T12:11:37;19.20;99.90
40808;DHT22;26523;52.504;13.498;2022-10-15T12:17:13;19.10;99.90
40808;DHT22;26523;52.504;13.498;2022-10-15T12:19:57;19.10;99.90
40808;DHT22;26523;52.504;13.498;2022-10-15T12:24:56;18.70;99.90
40808;DHT22;26523;52.504;13.498;2022-10-15T12:32:42;18.70;99.90
40808;DHT22;26523;52.504;13.498;2022-10-15T12:35:33;18.70;99.90
40808;DHT22;26523;52.504;13.498;2022-10-15T12:38:18;18.70;99.90
40808;DHT22;26523;52.504;13.498;2022-10-15T12:40:45;18.70;99.90
40808;DHT22;26523;52.504;13.498;2022-10-15T12:43:14;18.70;99.90
40808;DHT22;26523;52.504;13.498;2022-10-15T12:45:51;18.70;99.90
40808;DHT22;26523;52.504;13.498;2022-10-15T12:50:45;18.50;99.90
40808;DHT22;26523;52.504;13.498;2022-10-15T12:53:27;18.40;99.90
40808;DHT22;26523;52.504;13.498;2022-10-15T12:58:57;18.40;99.90
40808;DHT22;26523;52.504;13.498;2022-10-15T13:01:48;18.40;99.90
40808;DHT22;26523;52.504;13.498;2022-10-15T13:04:15;18.40;99.90
40808;DHT22;26523;52.504;13.498;2022-10-15T13:06:41;18.60;99.90
40808;DHT22;26523;52.504;13.498;2022-10-15T13:11:51;18.50;99.90
40808;DHT22;26523;52.504;13.498;2022-10-15T13:14:45;18.40;99.90
40808;DHT22;26523;52.504;13.498;2022-10-15T13:17:17;18.50;99.90
40808;DHT22;26523;52.504;13.498;2022-10-15T13:19:51;18.60;99.90
40808;DHT22;26523;52.504;13.498;2022-10-15T13:22:26;18.70;99.90
40808;DHT22;26523;52.504;13.498;2022-10-15T13:24:52;18.70;99.90
40808;DHT22;26523;52.504;13.498;2022-10-15T13:27:34;18.50;99.90
40808;DHT22;26523;52.504;13.498;2022-10-15T13:30:11;18.50;99.90
40808;DHT22;26523;52.504;13.498;2022-10-15T13:32:55;18.60;99.90
40808;DHT22;26523;52.504;13.498;2022-10-15T13:35:25;18.50;99.90
40808;DHT22;26523;52.504;13.498;2022-10-15T13:37:55;18.50;99.90
40808;DHT22;26523;52.504;13.498;2022-10-15T13:40:24;18.50;99.90
40808;DHT22;26523;52.504;13.498;2022-10-15T13:43:12;18.50;99.90
40808;DHT22;26523;52.504;13.498;2022-10-15T13:45:46;18.50;99.90
40808;DHT22;26523;52.504;13.498;2022-10-15T13:48:12;18.50;99.90
40808;DHT22;26523;52.504;13.498;2022-10-15T13:50:41;18.40;99.90
40808;DHT22;26523;52.504;13.498;2022-10-15T13:53:19;18.30;99.90
40808;DHT22;26523;52.504;13.498;2022-10-15T13:55:51;18.30;99.90
40808;DHT22;26523;52.504;13.498;2022-10-15T14:03:35;18.30;99.90
40808;DHT22;26523;52.504;13.498;2022-10-15T14:06:25;18.20;99.90
40808;DHT22;26523;52.504;13.498;2022-10-15T14:08:57;18.30;99.90
40808;DHT22;26523;52.504;13.498;2022-10-15T14:11:23;18.50;99.90
40808;DHT22;26523;52.504;13.498;2022-10-15T14:13:55;18.50;99.90
40808;DHT22;26523;52.504;13.498;2022-10-15T14:16:27;18.50;99.90
40808;DHT22;26523;52.504;13.498;2022-10-15T14:19:06;18.60;99.90
40808;DHT22;26523;52.504;13.498;2022-10-15T14:21:34;18.60;99.90
40808;DHT22;26523;52.504;13.498;2022-10-15T14:26:31;18.60;99.90
40808;DHT22;26523;52.504;13.498;2022-10-15T14:28:58;18.40;99.90
40808;DHT22;26523;52.504;13.498;2022-10-15T14:31:35;18.40;99.90
40808;DHT22;26523;52.504;13.498;2022-10-15T14:34:01;18.20;99.90
40808;DHT22;26523;52.504;13.498;2022-10-15T14:36:29;18.00;99.90
40808;DHT22;26523;52.504;13.498;2022-10-15T14:39:21;17.80;99.90
40808;DHT22;26523;52.504;13.498;2022-10-15T14:41:57;17.60;99.90
40808;DHT22;26523;52.504;13.498;2022-10-15T14:44:23;17.60;99.90
40808;DHT22;26523;52.504;13.498;2022-10-15T14:46:57;17.60;99.90
40808;DHT22;26523;52.504;13.498;2022-10-15T14:49:27;17.60;99.90
40808;DHT22;26523;52.504;13.498;2022-10-15T14:52:14;17.80;99.90
40808;DHT22;26523;52.504;13.498;2022-10-15T14:54:45;17.70;99.90
40808;DHT22;26523;52.504;13.498;2022-10-15T14:57:35;17.80;99.90
40808;DHT22;26523;52.504;13.498;2022-10-15T15:00:12;17.80;99.90
40808;DHT22;26523;52.504;13.498;2022-10-15T15:02:41;17.70;99.90
40808;DHT22;26523;52.504;13.498;2022-10-15T15:07:36;17.50;99.90
40808;DHT22;26523;52.504;13.498;2022-10-15T15:10:02;17.40;99.90
40808;DHT22;26523;52.504;13.498;2022-10-15T15:12:28;17.20;99.90
40808;DHT22;26523;52.504;13.498;2022-10-15T15:14:55;17.20;99.90
40808;DHT22;26523;52.504;13.498;2022-10-15T15:17:24;17.10;99.90
40808;DHT22;26523;52.504;13.498;2022-10-15T15:19:51;17.00;99.90
40808;DHT22;26523;52.504;13.498;2022-10-15T15:22:22;16.80;99.90
40808;DHT22;26523;52.504;13.498;2022-10-15T15:24:49;16.70;99.90
40808;DHT22;26523;52.504;13.498;2022-10-15T15:27:25;16.70;99.90
40808;DHT22;26523;52.504;13.498;2022-10-15T15:29:52;16.60;99.90
40808;DHT22;26523;52.504;13.498;2022-10-15T15:32:19;16.50;99.90
40808;DHT22;26523;52.504;13.498;2022-10-15T15:34:45;16.50;99.90
40808;DHT22;26523;52.504;13.498;2022-10-15T15:37:24;16.50;99.90
40808;DHT22;26523;52.504;13.498;2022-10-15T15:39:50;16.50;99.90
40808;DHT22;26523;52.504;13.498;2022-10-15T15:42:18;16.60;99.90
40808;DHT22;26523;52.504;13.498;2022-10-15T15:44:44;16.60;99.90
40808;DHT22;26523;52.504;13.498;2022-10-15T15:47:10;16.60;99.90
40808;DHT22;26523;52.504;13.498;2022-10-15T15:49:36;16.50;99.90
40808;DHT22;26523;52.504;13.498;2022-10-15T15:52:04;16.40;99.90
40808;DHT22;26523;52.504;13.498;2022-10-15T15:54:33;16.40;99.90
40808;DHT22;26523;52.504;13.498;2022-10-15T15:56:59;16.30;99.90
40808;DHT22;26523;52.504;13.498;2022-10-15T15:59:24;16.30;99.90
40808;DHT22;26523;52.504;13.498;2022-10-15T16:01:50;16.10;99.90
40808;DHT22;26523;52.504;13.498;2022-10-15T16:04:16;16.00;99.90
40808;DHT22;26523;52.504;13.498;2022-10-15T16:06:41;15.90;99.90
40808;DHT22;26523;52.504;13.498;2022-10-15T16:09:07;15.80;99.90
40808;DHT22;26523;52.504;13.498;2022-10-15T16:11:36;15.60;99.90
40808;DHT22;26523;52.504;13.498;2022-10-15T16:14:01;15.60;99.90
40808;DHT22;26523;52.504;13.498;2022-10-15T16:16:27;15.60;99.90
40808;DHT22;26523;52.504;13.498;2022-10-15T16:18:52;15.60;99.90
40808;DHT22;26523;52.504;13.498;2022-10-15T16:21:22;15.40;99.90
40808;DHT22;26523;52.504;13.498;2022-10-15T16:23:48;15.40;99.90
40808;DHT22;26523;52.504;13.498;2022-10-15T16:26:15;15.30;99.90
40808;DHT22;26523;52.504;13.498;2022-10-15T16:28:40;15.40;99.90
40808;DHT22;26523;52.504;13.498;2022-10-15T16:33:39;15.20;99.90
40808;DHT22;26523;52.504;13.498;2022-10-15T16:36:05;15.10;99.90
40808;DHT22;26523;52.504;13.498;2022-10-15T16:38:30;15.00;99.90
40808;DHT22;26523;52.504;13.498;2022-10-15T16:40:56;14.90;99.90
40808;DHT22;26523;52.504;13.498;2022-10-15T16:43:21;14.90;99.90
40808;DHT22;26523;52.504;13.498;2022-10-15T16:45:54;14.90;99.90
40808;DHT22;26523;52.504;13.498;2022-10-15T16:48:20;14.80;99.90
40808;DHT22;26523;52.504;13.498;2022-10-15T16:50:46;14.70;99.90
40808;DHT22;26523;52.504;13.498;2022-10-15T16:53:11;14.60;99.90
40808;DHT22;26523;52.504;13.498;2022-10-15T16:55:37;14.70;99.90
40808;DHT22;26523;52.504;13.498;2022-10-15T16:58:02;14.60;99.90
40808;DHT22;26523;52.504;13.498;2022-10-15T17:00:28;14.60;99.90
40808;DHT22;26523;52.504;13.498;2022-10-15T17:02:54;14.70;99.90